createdAt,value
2023-04-04T00:04:32.500Z,206.85
2023-04-04T00:11:34.271Z,197.70
2023-04-04T00:18:36.190Z,193.70
2023-04-04T00:25:37.937Z,192.38
2023-04-04T00:32:39.524Z,183.23
2023-04-04T00:39:41.140Z,182.48
2023-04-04T00:46:42.678Z,174.88
2023-04-04T00:53:44.857Z,177.20
2023-04-04T01:00:46.515Z,181.25
2023-04-04T01:07:49.162Z,179.10
2023-04-04T01:14:51.129Z,192.40
2023-04-04T01:21:52.903Z,196.45
2023-04-04T01:28:55.380Z,191.48
2023-04-04T01:36:10.976Z,195.70
2023-04-04T01:43:13.260Z,200.35
2023-04-04T01:50:17.111Z,212.25
2023-04-04T01:57:18.877Z,211.00
2023-04-04T02:04:21.133Z,223.77
2023-04-04T02:11:23.143Z,244.48
2023-04-04T02:18:25.924Z,232.93
2023-04-04T02:25:27.823Z,234.45
2023-04-04T02:32:29.359Z,250.15
2023-04-04T02:39:31.188Z,289.33
2023-04-04T02:46:34.577Z,202.13
2023-04-04T02:53:40.242Z,257.13
2023-04-04T03:01:06.550Z,233.02
2023-04-04T03:08:12.104Z,224.30
2023-04-04T03:15:14.454Z,215.45
2023-04-04T03:22:16.496Z,203.32
2023-04-04T03:29:18.415Z,188.00
2023-04-04T03:36:21.062Z,176.35
2023-04-04T03:43:24.533Z,176.02
2023-04-04T03:50:26.298Z,161.30
2023-04-04T03:57:28.199Z,160.93
2023-04-04T04:04:29.854Z,148.02
2023-04-04T04:11:31.497Z,143.25
2023-04-04T04:18:34.844Z,133.52
2023-04-04T04:25:37.265Z,133.02
2023-04-04T04:32:51.505Z,124.60
2023-04-04T04:39:57.220Z,132.68
2023-04-04T04:47:09.984Z,138.43
2023-04-04T04:54:11.845Z,128.07
2023-04-04T05:01:15.823Z,114.50
2023-04-04T05:08:17.572Z,107.55
2023-04-04T05:15:41.965Z,93.43
2023-04-04T05:22:44.391Z,59.17
2023-04-04T05:29:48.468Z,45.58
2023-04-04T05:36:51.018Z,44.22
2023-04-04T05:43:52.916Z,50.35
2023-04-04T05:50:58.052Z,45.97
2023-04-04T05:58:13.677Z,34.78
2023-04-04T06:05:23.736Z,37.60
2023-04-04T06:12:25.601Z,41.20
2023-04-04T06:19:28.148Z,50.35
2023-04-04T06:26:30.226Z,59.08
2023-04-04T06:33:32.727Z,89.32
2023-04-04T06:40:35.375Z,126.82
2023-04-04T06:47:37.941Z,144.35
2023-04-04T06:54:40.545Z,107.50
2023-04-04T07:01:43.208Z,106.13
2023-04-04T07:08:44.818Z,93.72
2023-04-04T07:15:50.123Z,68.90
2023-04-04T07:22:51.781Z,48.10
2023-04-04T07:29:53.416Z,59.00
2023-04-04T07:36:55.144Z,39.20
2023-04-04T07:43:56.767Z,37.55
2023-04-04T07:51:00.199Z,8.57
2023-04-04T07:58:01.718Z,8.73
2023-04-04T08:05:03.466Z,14.20
2023-04-04T08:12:07.816Z,8.27
2023-04-04T08:19:09.745Z,15.07
2023-04-04T08:26:11.875Z,15.70
2023-04-04T08:33:13.422Z,26.42
2023-04-04T08:40:15.110Z,22.95
2023-04-04T08:47:16.698Z,41.25
2023-04-04T08:54:18.324Z,47.83
2023-04-04T09:01:20.039Z,28.10
2023-04-04T09:08:23.726Z,22.15
2023-04-04T09:15:25.719Z,7.10
2023-04-04T09:22:27.355Z,10.77
2023-04-04T09:29:28.898Z,11.25
2023-04-04T09:36:31.430Z,11.43
2023-04-04T09:43:34.397Z,8.10
2023-04-04T09:50:37.971Z,6.65
2023-04-04T09:57:40.867Z,4.60
2023-04-04T10:04:43.691Z,6.75
2023-04-04T10:11:47.078Z,7.22
2023-04-04T10:18:48.619Z,4.53
2023-04-04T10:25:50.468Z,10.90
2023-04-04T10:33:02.517Z,5.75
2023-04-04T10:40:11.004Z,6.15
2023-04-04T10:47:17.240Z,7.30
2023-04-04T10:54:18.793Z,4.43
2023-04-04T11:01:22.160Z,4.90
2023-04-04T11:08:26.206Z,6.35
2023-04-04T11:15:27.732Z,5.40
2023-04-04T11:22:29.661Z,3.35
2023-04-04T11:29:50.030Z,3.05
2023-04-04T11:36:52.014Z,6.03
2023-04-04T11:43:53.517Z,4.90
2023-04-04T11:50:55.167Z,4.93
2023-04-04T11:57:59.535Z,3.65
2023-04-04T12:05:01.197Z,3.67
2023-04-04T12:12:03.585Z,3.65
2023-04-04T12:19:05.109Z,3.58
2023-04-04T12:26:07.065Z,4.32
2023-04-04T12:33:09.751Z,4.22
2023-04-04T12:40:11.663Z,3.03
2023-04-04T12:47:15.801Z,2.95
2023-04-04T12:54:31.444Z,4.40
2023-04-04T13:01:33.216Z,3.55
2023-04-04T13:08:34.987Z,5.75
2023-04-04T13:15:52.203Z,3.67
2023-04-04T13:22:58.105Z,4.68
2023-04-04T13:29:59.692Z,2.90
2023-04-04T13:37:01.363Z,4.18
2023-04-04T13:44:02.955Z,5.55
2023-04-04T13:51:04.618Z,4.78
2023-04-04T13:58:06.438Z,4.57
2023-04-04T14:05:08.449Z,3.35
2023-04-04T14:12:10.184Z,5.60
2023-04-04T14:19:11.741Z,2.70
2023-04-04T14:26:13.578Z,3.97
2023-04-04T14:33:15.122Z,4.15
2023-04-04T14:40:16.812Z,2.50
2023-04-04T14:47:18.352Z,4.65
2023-04-04T14:54:19.855Z,2.33
2023-04-04T15:01:22.754Z,5.80
2023-04-04T15:08:24.447Z,3.90
2023-04-04T15:15:29.091Z,5.63
2023-04-04T15:22:30.727Z,5.40
2023-04-04T15:29:32.233Z,5.95
2023-04-04T15:36:34.140Z,4.68
2023-04-04T15:43:36.487Z,7.53
2023-04-04T15:50:38.239Z,4.90
2023-04-04T15:57:40.447Z,5.30
2023-04-04T16:04:41.992Z,5.13
2023-04-04T16:11:43.553Z,4.55
2023-04-04T16:18:45.316Z,5.50
2023-04-04T16:25:47.103Z,8.23
2023-04-04T16:32:49.180Z,11.00
2023-04-04T16:39:51.910Z,5.70
2023-04-04T16:46:53.532Z,5.10
2023-04-04T16:53:56.181Z,10.07
2023-04-04T17:00:57.774Z,3.05
2023-04-04T17:07:59.566Z,4.22
2023-04-04T17:15:01.100Z,5.38
2023-04-04T17:22:03.089Z,3.58
2023-04-04T17:29:04.625Z,5.53
2023-04-04T17:36:06.340Z,7.53
2023-04-04T17:43:07.867Z,5.20
2023-04-04T17:50:09.681Z,6.93
2023-04-04T17:57:11.584Z,5.50
2023-04-04T18:04:13.164Z,6.07
2023-04-04T18:11:14.773Z,7.13
2023-04-04T18:18:16.848Z,3.42
2023-04-04T18:25:18.609Z,4.18
2023-04-04T18:32:25.360Z,18.85
2023-04-04T18:39:27.561Z,5.63
2023-04-04T18:46:29.285Z,9.50
2023-04-04T18:53:30.879Z,7.90
2023-04-04T19:00:32.423Z,10.07
2023-04-04T19:07:34.528Z,8.73
2023-04-04T19:14:36.344Z,8.60
2023-04-04T19:21:37.884Z,8.93
2023-04-04T19:28:39.413Z,13.40
2023-04-04T19:35:48.564Z,27.98
2023-04-04T19:42:50.112Z,32.28
2023-04-04T19:49:51.732Z,8.80
2023-04-04T19:57:06.789Z,8.45
2023-04-04T20:04:09.083Z,10.30
2023-04-04T20:11:11.575Z,11.07
2023-04-04T20:18:23.263Z,9.50
2023-04-04T20:25:40.875Z,8.50
2023-04-04T20:32:43.233Z,10.07
2023-04-04T20:39:54.396Z,6.53
2023-04-04T20:46:55.984Z,7.78
2023-04-04T20:53:59.402Z,8.70
2023-04-04T21:01:01.322Z,11.45
2023-04-04T21:08:03.155Z,40.47
2023-04-04T21:15:06.038Z,57.13
2023-04-04T21:22:07.746Z,92.43
2023-04-04T21:29:21.380Z,70.82
2023-04-04T21:36:27.534Z,82.38
2023-04-04T21:43:29.024Z,10.10
2023-04-04T21:50:30.529Z,6.80
2023-04-04T21:57:32.056Z,11.80
2023-04-04T22:04:33.645Z,10.75
2023-04-04T22:11:38.668Z,46.47
2023-04-04T22:18:42.827Z,47.75
2023-04-04T22:25:44.439Z,112.13
2023-04-04T22:32:46.200Z,126.07
2023-04-04T22:39:51.023Z,131.63
2023-04-04T22:46:52.556Z,134.40
2023-04-04T22:53:57.646Z,169.23
2023-04-04T23:00:59.202Z,37.90
2023-04-04T23:08:02.338Z,36.60
2023-04-04T23:15:05.224Z,41.72
2023-04-04T23:22:07.253Z,37.28
2023-04-04T23:29:09.746Z,31.38
2023-04-04T23:36:11.306Z,29.45
2023-04-04T23:43:12.847Z,29.20
2023-04-04T23:50:14.370Z,27.02
2023-04-04T23:57:16.950Z,27.55
